Terminal Aerodrome Forecast
Issued by NWS Charleston, WV

Current Version | Previous Version | Text Only | Print | Product List | Glossary Off
Versions: 1 2 3 4 5 6 7 8 9 10 11 12 13 14 15 16 17 18 19 20 21 22 23 24 25

000
FTUS41 KRLX 201500 AAA
TAFEKN
TAF AMD
KEKN 201502Z 2015/2112 27013G23KT P6SM BKN035
     FM210200 27011G19KT 5SM -SN BKN035
     FM210400 27010G17KT 2SM -SN OVC020
     FM211000 29009KT 4SM -SN BKN025=

USA.gov is the U.S. government's official web portal to all federal, state and local government web resources and services.